sensor_id;sensor_type;location;lat;lon;timestamp;temperature;humidity
51765;DHT22;37835;53.256;6.456;2023-04-15T00:02:16;6.50;99.90
51765;DHT22;37835;53.256;6.456;2023-04-15T00:04:45;6.40;99.90
51765;DHT22;37835;53.256;6.456;2023-04-15T00:07:11;6.40;99.90
51765;DHT22;37835;53.256;6.456;2023-04-15T00:09:37;6.40;99.90
51765;DHT22;37835;53.256;6.456;2023-04-15T00:12:04;6.40;99.90
51765;DHT22;37835;53.256;6.456;2023-04-15T00:14:30;6.30;99.90
51765;DHT22;37835;53.256;6.456;2023-04-15T00:16:55;6.40;99.90
51765;DHT22;37835;53.256;6.456;2023-04-15T00:19:22;6.30;99.90
51765;DHT22;37835;53.256;6.456;2023-04-15T00:21:48;6.30;99.90
51765;DHT22;37835;53.256;6.456;2023-04-15T00:24:14;6.30;99.90
51765;DHT22;37835;53.256;6.456;2023-04-15T00:26:39;6.30;99.90
51765;DHT22;37835;53.256;6.456;2023-04-15T00:29:05;6.20;99.90
51765;DHT22;37835;53.256;6.456;2023-04-15T00:31:31;6.40;99.90
51765;DHT22;37835;53.256;6.456;2023-04-15T00:33:57;6.20;99.90
51765;DHT22;37835;53.256;6.456;2023-04-15T00:36:23;6.20;99.90
51765;DHT22;37835;53.256;6.456;2023-04-15T00:38:48;6.20;99.90
51765;DHT22;37835;53.256;6.456;2023-04-15T00:41:14;6.10;99.90
51765;DHT22;37835;53.256;6.456;2023-04-15T00:43:40;6.10;99.90
51765;DHT22;37835;53.256;6.456;2023-04-15T00:46:06;6.10;99.90
51765;DHT22;37835;53.256;6.456;2023-04-15T00:48:32;6.10;99.90
51765;DHT22;37835;53.256;6.456;2023-04-15T00:50:58;6.10;99.90
51765;DHT22;37835;53.256;6.456;2023-04-15T00:53:23;6.10;99.90
51765;DHT22;37835;53.256;6.456;2023-04-15T00:55:49;6.10;99.90
51765;DHT22;37835;53.256;6.456;2023-04-15T00:58:16;6.00;99.90
51765;DHT22;37835;53.256;6.456;2023-04-15T01:00:42;6.00;99.90
51765;DHT22;37835;53.256;6.456;2023-04-15T01:03:08;6.00;99.90
51765;DHT22;37835;53.256;6.456;2023-04-15T01:05:34;6.00;99.90
51765;DHT22;37835;53.256;6.456;2023-04-15T01:08:01;5.90;99.90
51765;DHT22;37835;53.256;6.456;2023-04-15T01:10:26;5.90;99.90
51765;DHT22;37835;53.256;6.456;2023-04-15T01:12:52;5.90;99.90
51765;DHT22;37835;53.256;6.456;2023-04-15T01:15:19;5.90;99.90
51765;DHT22;37835;53.256;6.456;2023-04-15T01:17:45;5.70;99.90
51765;DHT22;37835;53.256;6.456;2023-04-15T01:20:12;5.80;99.90
51765;DHT22;37835;53.256;6.456;2023-04-15T01:22:37;5.80;99.90
51765;DHT22;37835;53.256;6.456;2023-04-15T01:25:08;5.90;99.90
51765;DHT22;37835;53.256;6.456;2023-04-15T01:27:35;5.80;99.90
51765;DHT22;37835;53.256;6.456;2023-04-15T01:30:03;5.80;99.90
51765;DHT22;37835;53.256;6.456;2023-04-15T01:32:29;5.80;99.90
51765;DHT22;37835;53.256;6.456;2023-04-15T01:34:55;5.60;99.90
51765;DHT22;37835;53.256;6.456;2023-04-15T01:37:21;5.80;99.90
51765;DHT22;37835;53.256;6.456;2023-04-15T01:39:47;5.80;99.90
51765;DHT22;37835;53.256;6.456;2023-04-15T01:42:12;5.70;99.90
51765;DHT22;37835;53.256;6.456;2023-04-15T01:44:38;5.70;99.90
51765;DHT22;37835;53.256;6.456;2023-04-15T01:47:03;5.70;99.90
51765;DHT22;37835;53.256;6.456;2023-04-15T01:49:29;5.70;99.90
51765;DHT22;37835;53.256;6.456;2023-04-15T01:51:55;5.60;99.90
51765;DHT22;37835;53.256;6.456;2023-04-15T01:54:21;5.60;99.90
51765;DHT22;37835;53.256;6.456;2023-04-15T01:56:46;6.00;99.90
51765;DHT22;37835;53.256;6.456;2023-04-15T01:59:12;5.60;99.90
51765;DHT22;37835;53.256;6.456;2023-04-15T02:01:38;5.20;99.90
51765;DHT22;37835;53.256;6.456;2023-04-15T02:04:04;5.50;99.90
51765;DHT22;37835;53.256;6.456;2023-04-15T02:06:29;5.50;99.90
51765;DHT22;37835;53.256;6.456;2023-04-15T02:08:55;5.40;99.90
51765;DHT22;37835;53.256;6.456;2023-04-15T02:11:21;5.40;99.90
51765;DHT22;37835;53.256;6.456;2023-04-15T02:13:47;5.30;99.90
51765;DHT22;37835;53.256;6.456;2023-04-15T02:16:17;5.30;99.90
51765;DHT22;37835;53.256;6.456;2023-04-15T02:18:44;5.20;99.90
51765;DHT22;37835;53.256;6.456;2023-04-15T02:21:10;5.20;99.90
51765;DHT22;37835;53.256;6.456;2023-04-15T02:23:35;5.20;99.90
51765;DHT22;37835;53.256;6.456;2023-04-15T02:26:01;5.20;99.90
51765;DHT22;37835;53.256;6.456;2023-04-15T02:28:27;5.10;99.90
51765;DHT22;37835;53.256;6.456;2023-04-15T02:30:52;5.10;99.90
51765;DHT22;37835;53.256;6.456;2023-04-15T02:33:20;6.00;99.90
51765;DHT22;37835;53.256;6.456;2023-04-15T02:35:46;5.00;99.90
51765;DHT22;37835;53.256;6.456;2023-04-15T02:38:11;5.00;99.90
51765;DHT22;37835;53.256;6.456;2023-04-15T02:40:38;5.00;99.90
51765;DHT22;37835;53.256;6.456;2023-04-15T02:43:04;5.00;99.90
51765;DHT22;37835;53.256;6.456;2023-04-15T02:45:31;5.00;99.90
51765;DHT22;37835;53.256;6.456;2023-04-15T02:47:57;4.90;99.90
51765;DHT22;37835;53.256;6.456;2023-04-15T02:50:23;4.90;99.90
51765;DHT22;37835;53.256;6.456;2023-04-15T02:52:50;4.90;99.90
51765;DHT22;37835;53.256;6.456;2023-04-15T02:55:16;4.90;99.90
51765;DHT22;37835;53.256;6.456;2023-04-15T02:57:42;4.90;99.90
51765;DHT22;37835;53.256;6.456;2023-04-15T03:00:08;4.90;99.90
51765;DHT22;37835;53.256;6.456;2023-04-15T03:02:37;4.90;99.90
51765;DHT22;37835;53.256;6.456;2023-04-15T03:05:04;4.80;99.90
51765;DHT22;37835;53.256;6.456;2023-04-15T03:07:30;4.90;99.90
51765;DHT22;37835;53.256;6.456;2023-04-15T03:09:56;4.80;99.90
51765;DHT22;37835;53.256;6.456;2023-04-15T03:12:22;4.80;99.90
51765;DHT22;37835;53.256;6.456;2023-04-15T03:14:47;4.80;99.90
51765;DHT22;37835;53.256;6.456;2023-04-15T03:17:13;4.80;99.90
51765;DHT22;37835;53.256;6.456;2023-04-15T03:19:38;4.80;99.90
51765;DHT22;37835;53.256;6.456;2023-04-15T03:22:04;4.80;99.90
51765;DHT22;37835;53.256;6.456;2023-04-15T03:24:30;4.70;99.90
51765;DHT22;37835;53.256;6.456;2023-04-15T03:26:56;4.70;99.90
51765;DHT22;37835;53.256;6.456;2023-04-15T03:29:22;4.70;99.90
51765;DHT22;37835;53.256;6.456;2023-04-15T03:31:48;4.70;99.90
51765;DHT22;37835;53.256;6.456;2023-04-15T03:34:13;4.60;99.90
51765;DHT22;37835;53.256;6.456;2023-04-15T03:36:39;4.70;99.90
51765;DHT22;37835;53.256;6.456;2023-04-15T03:39:05;4.70;99.90
51765;DHT22;37835;53.256;6.456;2023-04-15T03:41:30;4.60;99.90
51765;DHT22;37835;53.256;6.456;2023-04-15T03:43:57;4.60;99.90
51765;DHT22;37835;53.256;6.456;2023-04-15T03:46:22;4.60;99.90
51765;DHT22;37835;53.256;6.456;2023-04-15T03:48:48;4.60;99.90
51765;DHT22;37835;53.256;6.456;2023-04-15T03:51:14;4.50;99.90
51765;DHT22;37835;53.256;6.456;2023-04-15T03:53:39;4.50;99.90
51765;DHT22;37835;53.256;6.456;2023-04-15T03:56:05;4.40;99.90
51765;DHT22;37835;53.256;6.456;2023-04-15T03:58:31;4.40;99.90
51765;DHT22;37835;53.256;6.456;2023-04-15T04:00:56;4.30;99.90
51765;DHT22;37835;53.256;6.456;2023-04-15T04:03:22;4.30;99.90
51765;DHT22;37835;53.256;6.456;2023-04-15T04:05:48;4.30;99.90
51765;DHT22;37835;53.256;6.456;2023-04-15T04:08:13;4.20;99.90
51765;DHT22;37835;53.256;6.456;2023-04-15T04:10:41;4.20;99.90
51765;DHT22;37835;53.256;6.456;2023-04-15T04:13:06;4.10;99.90
51765;DHT22;37835;53.256;6.456;2023-04-15T04:15:32;4.10;99.90
51765;DHT22;37835;53.256;6.456;2023-04-15T04:17:57;4.10;99.90
51765;DHT22;37835;53.256;6.456;2023-04-15T04:20:23;4.00;99.90
51765;DHT22;37835;53.256;6.456;2023-04-15T04:22:49;4.00;99.90
51765;DHT22;37835;53.256;6.456;2023-04-15T04:25:14;3.90;99.90
51765;DHT22;37835;53.256;6.456;2023-04-15T04:27:40;3.90;99.90
51765;DHT22;37835;53.256;6.456;2023-04-15T04:30:06;3.90;99.90
51765;DHT22;37835;53.256;6.456;2023-04-15T04:32:32;3.80;99.90
51765;DHT22;37835;53.256;6.456;2023-04-15T04:34:58;3.80;99.90
51765;DHT22;37835;53.256;6.456;2023-04-15T04:37:23;3.80;99.90
51765;DHT22;37835;53.256;6.456;2023-04-15T04:39:49;3.80;99.90
51765;DHT22;37835;53.256;6.456;2023-04-15T04:42:15;3.40;99.90
51765;DHT22;37835;53.256;6.456;2023-04-15T04:44:41;3.70;99.90
51765;DHT22;37835;53.256;6.456;2023-04-15T04:47:07;3.70;99.90
51765;DHT22;37835;53.256;6.456;2023-04-15T04:49:32;3.70;99.90
51765;DHT22;37835;53.256;6.456;2023-04-15T04:51:58;3.70;99.90
51765;DHT22;37835;53.256;6.456;2023-04-15T04:54:24;3.70;99.90
51765;DHT22;37835;53.256;6.456;2023-04-15T04:56:49;3.70;99.90
51765;DHT22;37835;53.256;6.456;2023-04-15T04:59:16;3.60;99.90
51765;DHT22;37835;53.256;6.456;2023-04-15T05:01:41;3.60;99.90
51765;DHT22;37835;53.256;6.456;2023-04-15T05:04:07;3.60;99.90
51765;DHT22;37835;53.256;6.456;2023-04-15T05:06:33;3.60;99.90
51765;DHT22;37835;53.256;6.456;2023-04-15T05:09:01;3.60;99.90
51765;DHT22;37835;53.256;6.456;2023-04-15T05:11:27;3.60;99.90
51765;DHT22;37835;53.256;6.456;2023-04-15T05:13:53;4.40;99.90
51765;DHT22;37835;53.256;6.456;2023-04-15T05:16:18;3.50;99.90
51765;DHT22;37835;53.256;6.456;2023-04-15T05:18:44;3.50;99.90
51765;DHT22;37835;53.256;6.456;2023-04-15T05:21:10;3.60;99.90
51765;DHT22;37835;53.256;6.456;2023-04-15T05:23:36;3.60;99.90
51765;DHT22;37835;53.256;6.456;2023-04-15T05:26:02;3.60;99.90
51765;DHT22;37835;53.256;6.456;2023-04-15T05:28:28;3.60;99.90
51765;DHT22;37835;53.256;6.456;2023-04-15T05:30:53;3.60;99.90
51765;DHT22;37835;53.256;6.456;2023-04-15T05:33:19;3.60;99.90
51765;DHT22;37835;53.256;6.456;2023-04-15T05:35:44;3.60;99.90
51765;DHT22;37835;53.256;6.456;2023-04-15T05:38:10;3.70;99.90
51765;DHT22;37835;53.256;6.456;2023-04-15T05:40:36;3.70;99.90
51765;DHT22;37835;53.256;6.456;2023-04-15T05:43:02;3.70;99.90
51765;DHT22;37835;53.256;6.456;2023-04-15T05:45:27;3.80;99.90
51765;DHT22;37835;53.256;6.456;2023-04-15T05:47:53;4.00;99.90
51765;DHT22;37835;53.256;6.456;2023-04-15T05:50:19;3.80;99.90
51765;DHT22;37835;53.256;6.456;2023-04-15T05:52:45;3.90;99.90
51765;DHT22;37835;53.256;6.456;2023-04-15T05:55:11;4.00;99.90
51765;DHT22;37835;53.256;6.456;2023-04-15T05:57:37;4.10;99.90
51765;DHT22;37835;53.256;6.456;2023-04-15T06:00:03;4.20;99.90
51765;DHT22;37835;53.256;6.456;2023-04-15T06:02:31;5.10;99.90
51765;DHT22;37835;53.256;6.456;2023-04-15T06:04:57;4.40;99.90
51765;DHT22;37835;53.256;6.456;2023-04-15T06:07:23;4.50;99.90
51765;DHT22;37835;53.256;6.456;2023-04-15T06:09:48;4.80;99.90
51765;DHT22;37835;53.256;6.456;2023-04-15T06:12:14;4.70;99.90
51765;DHT22;37835;53.256;6.456;2023-04-15T06:14:41;4.80;99.90
51765;DHT22;37835;53.256;6.456;2023-04-15T06:17:07;3.80;99.90
51765;DHT22;37835;53.256;6.456;2023-04-15T06:19:33;5.00;99.90
51765;DHT22;37835;53.256;6.456;2023-04-15T06:21:59;5.10;99.90
51765;DHT22;37835;53.256;6.456;2023-04-15T06:24:25;5.20;99.90
51765;DHT22;37835;53.256;6.456;2023-04-15T06:26:51;5.30;99.90
51765;DHT22;37835;53.256;6.456;2023-04-15T06:29:16;5.40;99.90
51765;DHT22;37835;53.256;6.456;2023-04-15T06:31:42;5.50;99.90
51765;DHT22;37835;53.256;6.456;2023-04-15T06:34:07;5.60;99.90
51765;DHT22;37835;53.256;6.456;2023-04-15T06:36:33;5.70;99.90
51765;DHT22;37835;53.256;6.456;2023-04-15T06:38:59;5.80;99.90
51765;DHT22;37835;53.256;6.456;2023-04-15T06:41:25;5.90;99.90
51765;DHT22;37835;53.256;6.456;2023-04-15T06:43:51;6.10;99.90
51765;DHT22;37835;53.256;6.456;2023-04-15T06:46:16;6.20;99.90
51765;DHT22;37835;53.256;6.456;2023-04-15T06:48:42;6.40;99.90
51765;DHT22;37835;53.256;6.456;2023-04-15T06:51:08;6.60;99.90
51765;DHT22;37835;53.256;6.456;2023-04-15T06:53:34;6.70;99.90
51765;DHT22;37835;53.256;6.456;2023-04-15T06:56:00;6.90;99.90
51765;DHT22;37835;53.256;6.456;2023-04-15T06:58:25;7.10;99.90
51765;DHT22;37835;53.256;6.456;2023-04-15T07:00:51;7.20;99.90
51765;DHT22;37835;53.256;6.456;2023-04-15T07:03:17;7.30;99.90
51765;DHT22;37835;53.256;6.456;2023-04-15T07:05:43;7.40;99.90
51765;DHT22;37835;53.256;6.456;2023-04-15T07:08:09;7.50;99.90
51765;DHT22;37835;53.256;6.456;2023-04-15T07:10:34;7.60;99.90
51765;DHT22;37835;53.256;6.456;2023-04-15T07:13:00;7.70;99.90
51765;DHT22;37835;53.256;6.456;2023-04-15T07:15:26;7.70;99.90
51765;DHT22;37835;53.256;6.456;2023-04-15T07:17:51;7.80;99.90
51765;DHT22;37835;53.256;6.456;2023-04-15T07:20:17;7.80;99.90
51765;DHT22;37835;53.256;6.456;2023-04-15T07:22:43;7.80;99.90
51765;DHT22;37835;53.256;6.456;2023-04-15T07:25:08;7.90;99.90
51765;DHT22;37835;53.256;6.456;2023-04-15T07:27:34;7.90;99.90
51765;DHT22;37835;53.256;6.456;2023-04-15T07:30:01;8.00;99.90
51765;DHT22;37835;53.256;6.456;2023-04-15T07:32:26;7.60;99.90
51765;DHT22;37835;53.256;6.456;2023-04-15T07:34:52;8.00;99.90
51765;DHT22;37835;53.256;6.456;2023-04-15T07:37:17;8.10;99.90
51765;DHT22;37835;53.256;6.456;2023-04-15T07:39:44;8.20;99.90
51765;DHT22;37835;53.256;6.456;2023-04-15T07:42:10;8.20;99.90
51765;DHT22;37835;53.256;6.456;2023-04-15T07:44:36;8.30;99.90
51765;DHT22;37835;53.256;6.456;2023-04-15T07:47:02;8.30;99.90
51765;DHT22;37835;53.256;6.456;2023-04-15T07:49:28;8.40;99.90
51765;DHT22;37835;53.256;6.456;2023-04-15T07:51:54;8.40;99.90
51765;DHT22;37835;53.256;6.456;2023-04-15T07:54:21;8.40;99.90
51765;DHT22;37835;53.256;6.456;2023-04-15T07:56:47;8.90;99.90
51765;DHT22;37835;53.256;6.456;2023-04-15T07:59:13;8.40;99.90
51765;DHT22;37835;53.256;6.456;2023-04-15T08:01:42;8.50;99.90
51765;DHT22;37835;53.256;6.456;2023-04-15T08:04:08;8.50;99.90
51765;DHT22;37835;53.256;6.456;2023-04-15T08:06:34;8.50;99.90
51765;DHT22;37835;53.256;6.456;2023-04-15T08:08:59;8.50;99.90
51765;DHT22;37835;53.256;6.456;2023-04-15T08:11:25;8.50;99.90
51765;DHT22;37835;53.256;6.456;2023-04-15T08:13:52;8.50;99.90
51765;DHT22;37835;53.256;6.456;2023-04-15T08:18:44;8.50;99.90
51765;DHT22;37835;53.256;6.456;2023-04-15T08:21:10;8.50;99.90
51765;DHT22;37835;53.256;6.456;2023-04-15T08:23:35;8.50;99.90
51765;DHT22;37835;53.256;6.456;2023-04-15T08:26:02;8.50;99.90
51765;DHT22;37835;53.256;6.456;2023-04-15T08:28:27;8.50;99.90
51765;DHT22;37835;53.256;6.456;2023-04-15T08:30:53;8.50;99.90
51765;DHT22;37835;53.256;6.456;2023-04-15T08:33:19;8.50;99.90
51765;DHT22;37835;53.256;6.456;2023-04-15T08:35:45;8.50;99.90
51765;DHT22;37835;53.256;6.456;2023-04-15T08:38:11;8.50;99.90
51765;DHT22;37835;53.256;6.456;2023-04-15T08:40:43;8.50;99.90
51765;DHT22;37835;53.256;6.456;2023-04-15T08:43:14;8.50;99.90
51765;DHT22;37835;53.256;6.456;2023-04-15T08:45:43;8.50;99.90
51765;DHT22;37835;53.256;6.456;2023-04-15T08:48:14;8.50;99.90
51765;DHT22;37835;53.256;6.456;2023-04-15T08:50:42;8.50;99.90
51765;DHT22;37835;53.256;6.456;2023-04-15T08:53:09;8.50;99.90
51765;DHT22;37835;53.256;6.456;2023-04-15T08:55:41;8.60;99.90
51765;DHT22;37835;53.256;6.456;2023-04-15T08:58:08;8.60;99.90
51765;DHT22;37835;53.256;6.456;2023-04-15T09:00:35;8.60;99.90
51765;DHT22;37835;53.256;6.456;2023-04-15T09:03:01;8.50;99.90
51765;DHT22;37835;53.256;6.456;2023-04-15T09:05:26;8.50;99.90
51765;DHT22;37835;53.256;6.456;2023-04-15T09:07:52;8.50;99.90
51765;DHT22;37835;53.256;6.456;2023-04-15T09:10:17;8.50;99.90
51765;DHT22;37835;53.256;6.456;2023-04-15T09:12:43;8.50;99.90
51765;DHT22;37835;53.256;6.456;2023-04-15T09:15:12;8.50;99.90
51765;DHT22;37835;53.256;6.456;2023-04-15T09:17:42;8.50;99.90
51765;DHT22;37835;53.256;6.456;2023-04-15T09:20:09;8.50;99.90
51765;DHT22;37835;53.256;6.456;2023-04-15T09:22:35;8.40;99.90
51765;DHT22;37835;53.256;6.456;2023-04-15T09:25:02;8.50;99.90
51765;DHT22;37835;53.256;6.456;2023-04-15T09:27:28;8.50;99.90
51765;DHT22;37835;53.256;6.456;2023-04-15T09:29:54;8.50;99.90
51765;DHT22;37835;53.256;6.456;2023-04-15T09:32:20;8.60;99.90
51765;DHT22;37835;53.256;6.456;2023-04-15T09:34:47;8.70;99.90
51765;DHT22;37835;53.256;6.456;2023-04-15T09:37:13;8.80;99.90
51765;DHT22;37835;53.256;6.456;2023-04-15T09:39:50;9.00;99.90
51765;DHT22;37835;53.256;6.456;2023-04-15T09:42:16;9.10;99.90
51765;DHT22;37835;53.256;6.456;2023-04-15T09:44:49;9.10;99.90
51765;DHT22;37835;53.256;6.456;2023-04-15T09:47:30;9.20;99.90
51765;DHT22;37835;53.256;6.456;2023-04-15T09:50:00;9.20;99.90
51765;DHT22;37835;53.256;6.456;2023-04-15T09:52:26;9.20;99.90
51765;DHT22;37835;53.256;6.456;2023-04-15T09:54:54;9.30;99.90
51765;DHT22;37835;53.256;6.456;2023-04-15T09:57:23;9.30;99.90
51765;DHT22;37835;53.256;6.456;2023-04-15T09:59:52;9.40;99.90
51765;DHT22;37835;53.256;6.456;2023-04-15T10:02:18;9.40;99.90
51765;DHT22;37835;53.256;6.456;2023-04-15T10:04:47;9.50;99.90
51765;DHT22;37835;53.256;6.456;2023-04-15T10:07:14;9.50;99.90
51765;DHT22;37835;53.256;6.456;2023-04-15T10:09:40;9.60;99.90
51765;DHT22;37835;53.256;6.456;2023-04-15T10:12:07;9.60;99.90
51765;DHT22;37835;53.256;6.456;2023-04-15T10:14:34;9.60;99.90
51765;DHT22;37835;53.256;6.456;2023-04-15T10:17:01;9.60;99.90
51765;DHT22;37835;53.256;6.456;2023-04-15T10:19:31;9.60;99.90
51765;DHT22;37835;53.256;6.456;2023-04-15T10:21:58;9.60;99.90
51765;DHT22;37835;53.256;6.456;2023-04-15T10:24:24;9.60;99.90
51765;DHT22;37835;53.256;6.456;2023-04-15T10:26:51;9.60;99.90
51765;DHT22;37835;53.256;6.456;2023-04-15T10:29:17;9.60;99.90
51765;DHT22;37835;53.256;6.456;2023-04-15T10:31:43;9.60;99.90
51765;DHT22;37835;53.256;6.456;2023-04-15T10:34:10;9.60;99.90
51765;DHT22;37835;53.256;6.456;2023-04-15T10:36:36;9.60;99.90
51765;DHT22;37835;53.256;6.456;2023-04-15T10:39:37;9.50;99.90
51765;DHT22;37835;53.256;6.456;2023-04-15T10:42:11;9.50;99.90
51765;DHT22;37835;53.256;6.456;2023-04-15T10:44:38;9.50;99.90
51765;DHT22;37835;53.256;6.456;2023-04-15T10:47:14;9.60;99.90
51765;DHT22;37835;53.256;6.456;2023-04-15T10:49:50;9.50;99.90
51765;DHT22;37835;53.256;6.456;2023-04-15T10:52:25;9.60;99.90
51765;DHT22;37835;53.256;6.456;2023-04-15T10:55:14;9.60;99.90
51765;DHT22;37835;53.256;6.456;2023-04-15T10:57:42;9.60;99.90
51765;DHT22;37835;53.256;6.456;2023-04-15T11:00:13;9.60;99.90
51765;DHT22;37835;53.256;6.456;2023-04-15T11:02:58;9.60;99.90
51765;DHT22;37835;53.256;6.456;2023-04-15T11:05:47;9.60;99.90
51765;DHT22;37835;53.256;6.456;2023-04-15T11:08:13;9.50;99.90
51765;DHT22;37835;53.256;6.456;2023-04-15T11:13:15;9.50;99.90
51765;DHT22;37835;53.256;6.456;2023-04-15T11:15:43;11.10;99.90
51765;DHT22;37835;53.256;6.456;2023-04-15T11:18:21;9.50;99.90
51765;DHT22;37835;53.256;6.456;2023-04-15T11:20:49;9.50;99.90
51765;DHT22;37835;53.256;6.456;2023-04-15T11:23:17;9.50;99.90
51765;DHT22;37835;53.256;6.456;2023-04-15T11:25:43;9.50;99.90
51765;DHT22;37835;53.256;6.456;2023-04-15T11:28:10;9.60;99.90
51765;DHT22;37835;53.256;6.456;2023-04-15T11:30:37;9.60;99.90
51765;DHT22;37835;53.256;6.456;2023-04-15T11:33:08;9.70;99.90
51765;DHT22;37835;53.256;6.456;2023-04-15T11:35:34;9.70;99.90
51765;DHT22;37835;53.256;6.456;2023-04-15T11:38:04;9.70;99.90
51765;DHT22;37835;53.256;6.456;2023-04-15T11:40:30;8.90;99.90
51765;DHT22;37835;53.256;6.456;2023-04-15T11:45:49;9.70;99.90
51765;DHT22;37835;53.256;6.456;2023-04-15T11:48:16;9.70;99.90
51765;DHT22;37835;53.256;6.456;2023-04-15T11:50:41;9.60;99.90
51765;DHT22;37835;53.256;6.456;2023-04-15T11:53:10;9.60;99.90
51765;DHT22;37835;53.256;6.456;2023-04-15T11:55:48;9.60;99.90
51765;DHT22;37835;53.256;6.456;2023-04-15T11:58:24;9.60;99.90
51765;DHT22;37835;53.256;6.456;2023-04-15T12:03:17;9.50;99.90
51765;DHT22;37835;53.256;6.456;2023-04-15T12:06:03;9.50;99.90
51765;DHT22;37835;53.256;6.456;2023-04-15T12:08:54;9.50;99.90
51765;DHT22;37835;53.256;6.456;2023-04-15T12:11:27;9.40;99.90
51765;DHT22;37835;53.256;6.456;2023-04-15T12:16:43;9.40;99.90
51765;DHT22;37835;53.256;6.456;2023-04-15T12:19:12;9.40;99.90
51765;DHT22;37835;53.256;6.456;2023-04-15T12:21:39;9.40;99.90
51765;DHT22;37835;53.256;6.456;2023-04-15T12:24:08;9.80;99.90
51765;DHT22;37835;53.256;6.456;2023-04-15T12:26:45;9.30;99.90
51765;DHT22;37835;53.256;6.456;2023-04-15T12:29:13;9.30;99.90
51765;DHT22;37835;53.256;6.456;2023-04-15T12:31:52;9.20;99.90
51765;DHT22;37835;53.256;6.456;2023-04-15T12:34:28;9.20;99.90
51765;DHT22;37835;53.256;6.456;2023-04-15T12:36:54;9.20;99.90
51765;DHT22;37835;53.256;6.456;2023-04-15T12:39:22;9.20;99.90
51765;DHT22;37835;53.256;6.456;2023-04-15T12:41:48;9.20;99.90
51765;DHT22;37835;53.256;6.456;2023-04-15T12:44:13;9.20;99.90
51765;DHT22;37835;53.256;6.456;2023-04-15T12:46:39;9.20;99.90
51765;DHT22;37835;53.256;6.456;2023-04-15T12:49:05;9.50;99.90
51765;DHT22;37835;53.256;6.456;2023-04-15T12:51:31;9.20;99.90
51765;DHT22;37835;53.256;6.456;2023-04-15T12:53:57;9.20;99.90
51765;DHT22;37835;53.256;6.456;2023-04-15T12:56:23;9.30;99.90
51765;DHT22;37835;53.256;6.456;2023-04-15T12:58:48;9.30;99.90
51765;DHT22;37835;53.256;6.456;2023-04-15T13:01:14;9.40;99.90
51765;DHT22;37835;53.256;6.456;2023-04-15T13:03:39;9.40;99.90
51765;DHT22;37835;53.256;6.456;2023-04-15T13:06:05;9.40;99.90
51765;DHT22;37835;53.256;6.456;2023-04-15T13:08:31;9.40;99.90
51765;DHT22;37835;53.256;6.456;2023-04-15T13:10:57;9.50;99.90
51765;DHT22;37835;53.256;6.456;2023-04-15T13:13:22;9.50;99.90
51765;DHT22;37835;53.256;6.456;2023-04-15T13:15:48;9.40;99.90
51765;DHT22;37835;53.256;6.456;2023-04-15T13:18:14;9.40;99.90
51765;DHT22;37835;53.256;6.456;2023-04-15T13:20:39;9.40;99.90
51765;DHT22;37835;53.256;6.456;2023-04-15T13:23:05;9.40;99.90
51765;DHT22;37835;53.256;6.456;2023-04-15T13:25:31;8.40;99.90
51765;DHT22;37835;53.256;6.456;2023-04-15T13:27:57;9.30;99.90
51765;DHT22;37835;53.256;6.456;2023-04-15T13:30:22;9.20;99.90
51765;DHT22;37835;53.256;6.456;2023-04-15T13:32:48;9.20;99.90
51765;DHT22;37835;53.256;6.456;2023-04-15T13:35:15;9.20;99.90
51765;DHT22;37835;53.256;6.456;2023-04-15T13:37:40;9.20;99.90
51765;DHT22;37835;53.256;6.456;2023-04-15T13:40:06;9.10;99.90
51765;DHT22;37835;53.256;6.456;2023-04-15T13:42:32;9.10;99.90
51765;DHT22;37835;53.256;6.456;2023-04-15T13:44:58;9.10;99.90
51765;DHT22;37835;53.256;6.456;2023-04-15T13:47:23;9.00;99.90
51765;DHT22;37835;53.256;6.456;2023-04-15T13:49:49;9.00;99.90
51765;DHT22;37835;53.256;6.456;2023-04-15T13:52:15;8.40;99.90
51765;DHT22;37835;53.256;6.456;2023-04-15T13:54:41;9.00;99.90
51765;DHT22;37835;53.256;6.456;2023-04-15T13:57:07;8.90;99.90
51765;DHT22;37835;53.256;6.456;2023-04-15T13:59:33;8.90;99.90
51765;DHT22;37835;53.256;6.456;2023-04-15T14:01:59;8.80;99.90
51765;DHT22;37835;53.256;6.456;2023-04-15T14:04:24;8.80;99.90
51765;DHT22;37835;53.256;6.456;2023-04-15T14:06:51;8.80;99.90
51765;DHT22;37835;53.256;6.456;2023-04-15T14:09:16;8.80;99.90
51765;DHT22;37835;53.256;6.456;2023-04-15T14:11:42;8.80;99.90
51765;DHT22;37835;53.256;6.456;2023-04-15T14:14:08;8.80;99.90
51765;DHT22;37835;53.256;6.456;2023-04-15T14:16:34;9.60;99.90
51765;DHT22;37835;53.256;6.456;2023-04-15T14:19:01;8.70;99.90
51765;DHT22;37835;53.256;6.456;2023-04-15T14:21:26;8.70;99.90
51765;DHT22;37835;53.256;6.456;2023-04-15T14:23:53;8.70;99.90
51765;DHT22;37835;53.256;6.456;2023-04-15T14:26:19;8.60;99.90
51765;DHT22;37835;53.256;6.456;2023-04-15T14:28:45;8.60;99.90
51765;DHT22;37835;53.256;6.456;2023-04-15T14:31:10;8.60;99.90
51765;DHT22;37835;53.256;6.456;2023-04-15T14:33:36;8.60;99.90
51765;DHT22;37835;53.256;6.456;2023-04-15T14:36:02;8.60;99.90
51765;DHT22;37835;53.256;6.456;2023-04-15T14:38:27;8.60;99.90
51765;DHT22;37835;53.256;6.456;2023-04-15T14:40:53;8.50;99.90
51765;DHT22;37835;53.256;6.456;2023-04-15T14:43:19;8.50;99.90
51765;DHT22;37835;53.256;6.456;2023-04-15T14:45:45;8.50;99.90
51765;DHT22;37835;53.256;6.456;2023-04-15T14:48:10;8.50;99.90
51765;DHT22;37835;53.256;6.456;2023-04-15T14:50:37;8.50;99.90
51765;DHT22;37835;53.256;6.456;2023-04-15T14:53:02;8.50;99.90
51765;DHT22;37835;53.256;6.456;2023-04-15T14:55:28;8.50;99.90
51765;DHT22;37835;53.256;6.456;2023-04-15T14:57:54;8.50;99.90
51765;DHT22;37835;53.256;6.456;2023-04-15T15:00:20;8.40;99.90
51765;DHT22;37835;53.256;6.456;2023-04-15T15:02:45;8.40;99.90
51765;DHT22;37835;53.256;6.456;2023-04-15T15:05:13;8.40;99.90
51765;DHT22;37835;53.256;6.456;2023-04-15T15:07:40;8.40;99.90
51765;DHT22;37835;53.256;6.456;2023-04-15T15:10:06;8.30;99.90
51765;DHT22;37835;53.256;6.456;2023-04-15T15:12:32;8.30;99.90
51765;DHT22;37835;53.256;6.456;2023-04-15T15:14:58;8.30;99.90
51765;DHT22;37835;53.256;6.456;2023-04-15T15:17:24;8.30;99.90
51765;DHT22;37835;53.256;6.456;2023-04-15T15:19:49;8.30;99.90
51765;DHT22;37835;53.256;6.456;2023-04-15T15:22:15;8.20;99.90
51765;DHT22;37835;53.256;6.456;2023-04-15T15:24:41;8.20;99.90
51765;DHT22;37835;53.256;6.456;2023-04-15T15:29:32;8.20;99.90
51765;DHT22;37835;53.256;6.456;2023-04-15T15:31:58;8.20;99.90
51765;DHT22;37835;53.256;6.456;2023-04-15T15:34:24;8.10;99.90
51765;DHT22;37835;53.256;6.456;2023-04-15T15:36:49;8.10;99.90
51765;DHT22;37835;53.256;6.456;2023-04-15T15:39:15;8.10;99.90
51765;DHT22;37835;53.256;6.456;2023-04-15T15:41:40;8.10;99.90
51765;DHT22;37835;53.256;6.456;2023-04-15T15:44:06;8.10;99.90
51765;DHT22;37835;53.256;6.456;2023-04-15T15:46:31;8.00;99.90
51765;DHT22;37835;53.256;6.456;2023-04-15T15:48:57;8.00;99.90
51765;DHT22;37835;53.256;6.456;2023-04-15T15:51:23;8.00;99.90
51765;DHT22;37835;53.256;6.456;2023-04-15T15:53:48;8.00;99.90
51765;DHT22;37835;53.256;6.456;2023-04-15T15:56:15;7.90;99.90
51765;DHT22;37835;53.256;6.456;2023-04-15T15:58:41;7.90;99.90